sensor_id;sensor_type;location;lat;lon;timestamp;temperature;humidity
3919;DHT22;1974;48.670;8.994;2023-07-29T00:02:10;17.20;99.90
3919;DHT22;1974;48.670;8.994;2023-07-29T00:04:37;17.20;99.90
3919;DHT22;1974;48.670;8.994;2023-07-29T00:07:04;17.30;99.90
3919;DHT22;1974;48.670;8.994;2023-07-29T00:09:32;17.20;99.90
3919;DHT22;1974;48.670;8.994;2023-07-29T00:11:59;17.30;99.90
3919;DHT22;1974;48.670;8.994;2023-07-29T00:14:26;17.20;99.90
3919;DHT22;1974;48.670;8.994;2023-07-29T00:16:52;17.10;99.90
3919;DHT22;1974;48.670;8.994;2023-07-29T00:19:19;17.10;99.90
3919;DHT22;1974;48.670;8.994;2023-07-29T00:21:48;17.20;99.90
3919;DHT22;1974;48.670;8.994;2023-07-29T00:24:15;17.10;99.90
3919;DHT22;1974;48.670;8.994;2023-07-29T00:26:43;17.20;99.90
3919;DHT22;1974;48.670;8.994;2023-07-29T00:29:10;17.20;99.90
3919;DHT22;1974;48.670;8.994;2023-07-29T00:31:37;17.20;99.90
3919;DHT22;1974;48.670;8.994;2023-07-29T00:34:03;17.20;99.90
3919;DHT22;1974;48.670;8.994;2023-07-29T00:36:30;17.20;99.90
3919;DHT22;1974;48.670;8.994;2023-07-29T00:38:57;17.20;99.90
3919;DHT22;1974;48.670;8.994;2023-07-29T00:41:25;17.20;99.90
3919;DHT22;1974;48.670;8.994;2023-07-29T00:43:53;17.20;99.90
3919;DHT22;1974;48.670;8.994;2023-07-29T00:46:20;17.20;99.90
3919;DHT22;1974;48.670;8.994;2023-07-29T00:48:48;17.30;99.90
3919;DHT22;1974;48.670;8.994;2023-07-29T00:51:15;17.20;99.90
3919;DHT22;1974;48.670;8.994;2023-07-29T00:53:42;17.20;99.90
3919;DHT22;1974;48.670;8.994;2023-07-29T00:56:08;17.10;99.90
3919;DHT22;1974;48.670;8.994;2023-07-29T00:58:35;17.10;99.90
3919;DHT22;1974;48.670;8.994;2023-07-29T01:01:03;17.20;99.90
3919;DHT22;1974;48.670;8.994;2023-07-29T01:03:30;17.20;99.90
3919;DHT22;1974;48.670;8.994;2023-07-29T01:06:05;17.20;99.90
3919;DHT22;1974;48.670;8.994;2023-07-29T01:08:41;17.20;99.90
3919;DHT22;1974;48.670;8.994;2023-07-29T01:11:19;17.20;99.90
3919;DHT22;1974;48.670;8.994;2023-07-29T01:13:53;17.20;99.90
3919;DHT22;1974;48.670;8.994;2023-07-29T01:16:29;17.20;99.90
3919;DHT22;1974;48.670;8.994;2023-07-29T01:19:00;17.20;99.90
3919;DHT22;1974;48.670;8.994;2023-07-29T01:21:31;17.20;99.90
3919;DHT22;1974;48.670;8.994;2023-07-29T01:23:59;17.20;99.90
3919;DHT22;1974;48.670;8.994;2023-07-29T01:26:26;17.20;99.90
3919;DHT22;1974;48.670;8.994;2023-07-29T01:28:55;17.10;99.90
3919;DHT22;1974;48.670;8.994;2023-07-29T01:31:30;17.10;99.90
3919;DHT22;1974;48.670;8.994;2023-07-29T01:34:02;17.10;99.90
3919;DHT22;1974;48.670;8.994;2023-07-29T01:36:33;17.10;99.90
3919;DHT22;1974;48.670;8.994;2023-07-29T01:39:06;17.00;99.90
3919;DHT22;1974;48.670;8.994;2023-07-29T01:41:34;17.10;99.90
3919;DHT22;1974;48.670;8.994;2023-07-29T01:44:01;17.00;99.90
3919;DHT22;1974;48.670;8.994;2023-07-29T01:46:28;17.00;99.90
3919;DHT22;1974;48.670;8.994;2023-07-29T01:48:55;17.00;99.90
3919;DHT22;1974;48.670;8.994;2023-07-29T01:51:22;16.90;99.90
3919;DHT22;1974;48.670;8.994;2023-07-29T01:53:49;16.90;99.90
3919;DHT22;1974;48.670;8.994;2023-07-29T01:56:17;16.90;99.90
3919;DHT22;1974;48.670;8.994;2023-07-29T01:58:43;16.90;99.90
3919;DHT22;1974;48.670;8.994;2023-07-29T02:01:10;16.90;99.90
3919;DHT22;1974;48.670;8.994;2023-07-29T02:03:37;16.90;99.90
3919;DHT22;1974;48.670;8.994;2023-07-29T02:06:04;16.90;99.90
3919;DHT22;1974;48.670;8.994;2023-07-29T02:08:30;16.90;99.90
3919;DHT22;1974;48.670;8.994;2023-07-29T02:10:57;16.90;99.90
3919;DHT22;1974;48.670;8.994;2023-07-29T02:13:25;16.90;99.90
3919;DHT22;1974;48.670;8.994;2023-07-29T02:15:52;16.90;99.90
3919;DHT22;1974;48.670;8.994;2023-07-29T02:18:19;16.90;99.90
3919;DHT22;1974;48.670;8.994;2023-07-29T02:20:46;16.80;99.90
3919;DHT22;1974;48.670;8.994;2023-07-29T02:23:14;16.80;99.90
3919;DHT22;1974;48.670;8.994;2023-07-29T02:25:41;16.80;99.90
3919;DHT22;1974;48.670;8.994;2023-07-29T02:28:08;16.90;99.90
3919;DHT22;1974;48.670;8.994;2023-07-29T02:30:36;16.80;99.90
3919;DHT22;1974;48.670;8.994;2023-07-29T02:33:03;16.80;99.90
3919;DHT22;1974;48.670;8.994;2023-07-29T02:35:30;16.80;99.90
3919;DHT22;1974;48.670;8.994;2023-07-29T02:37:56;16.80;99.90
3919;DHT22;1974;48.670;8.994;2023-07-29T02:40:23;16.80;99.90
3919;DHT22;1974;48.670;8.994;2023-07-29T02:42:52;16.80;99.90
3919;DHT22;1974;48.670;8.994;2023-07-29T02:45:18;16.80;99.90
3919;DHT22;1974;48.670;8.994;2023-07-29T02:47:47;16.80;99.90
3919;DHT22;1974;48.670;8.994;2023-07-29T02:50:13;16.80;99.90
3919;DHT22;1974;48.670;8.994;2023-07-29T02:52:40;16.80;99.90
3919;DHT22;1974;48.670;8.994;2023-07-29T02:55:07;16.90;99.90
3919;DHT22;1974;48.670;8.994;2023-07-29T02:57:34;16.90;99.90
3919;DHT22;1974;48.670;8.994;2023-07-29T03:00:01;17.00;99.90
3919;DHT22;1974;48.670;8.994;2023-07-29T03:02:27;17.00;99.90
3919;DHT22;1974;48.670;8.994;2023-07-29T03:04:56;17.00;99.90
3919;DHT22;1974;48.670;8.994;2023-07-29T03:07:22;17.00;99.90
3919;DHT22;1974;48.670;8.994;2023-07-29T03:09:49;17.00;99.90
3919;DHT22;1974;48.670;8.994;2023-07-29T03:12:16;17.00;99.90
3919;DHT22;1974;48.670;8.994;2023-07-29T03:14:42;17.00;99.90
3919;DHT22;1974;48.670;8.994;2023-07-29T03:17:09;16.90;99.90
3919;DHT22;1974;48.670;8.994;2023-07-29T03:19:36;16.90;99.90
3919;DHT22;1974;48.670;8.994;2023-07-29T03:22:04;16.90;99.90
3919;DHT22;1974;48.670;8.994;2023-07-29T03:24:31;16.90;99.90
3919;DHT22;1974;48.670;8.994;2023-07-29T03:26:58;17.00;99.90
3919;DHT22;1974;48.670;8.994;2023-07-29T03:29:25;16.90;99.90
3919;DHT22;1974;48.670;8.994;2023-07-29T03:31:52;17.00;99.90
3919;DHT22;1974;48.670;8.994;2023-07-29T03:34:18;16.90;99.90
3919;DHT22;1974;48.670;8.994;2023-07-29T03:36:45;16.90;99.90
3919;DHT22;1974;48.670;8.994;2023-07-29T03:39:14;17.00;99.90
3919;DHT22;1974;48.670;8.994;2023-07-29T03:41:41;17.00;99.90
3919;DHT22;1974;48.670;8.994;2023-07-29T03:44:08;17.00;99.90
3919;DHT22;1974;48.670;8.994;2023-07-29T03:46:34;17.10;99.90
3919;DHT22;1974;48.670;8.994;2023-07-29T03:49:01;17.10;99.90
3919;DHT22;1974;48.670;8.994;2023-07-29T03:51:28;17.10;99.90
3919;DHT22;1974;48.670;8.994;2023-07-29T03:53:55;17.10;99.90
3919;DHT22;1974;48.670;8.994;2023-07-29T03:56:23;17.10;99.90
3919;DHT22;1974;48.670;8.994;2023-07-29T03:58:50;17.10;99.90
3919;DHT22;1974;48.670;8.994;2023-07-29T04:01:17;17.10;99.90
3919;DHT22;1974;48.670;8.994;2023-07-29T04:03:44;17.10;99.90
3919;DHT22;1974;48.670;8.994;2023-07-29T04:06:11;17.20;99.90
3919;DHT22;1974;48.670;8.994;2023-07-29T04:08:38;17.10;99.90
3919;DHT22;1974;48.670;8.994;2023-07-29T04:11:05;17.10;99.90
3919;DHT22;1974;48.670;8.994;2023-07-29T04:13:33;17.10;99.90
3919;DHT22;1974;48.670;8.994;2023-07-29T04:16:00;17.20;99.90
3919;DHT22;1974;48.670;8.994;2023-07-29T04:18:27;17.20;99.90
3919;DHT22;1974;48.670;8.994;2023-07-29T04:20:53;17.10;99.90
3919;DHT22;1974;48.670;8.994;2023-07-29T04:23:20;17.10;99.90
3919;DHT22;1974;48.670;8.994;2023-07-29T04:25:47;17.00;99.90
3919;DHT22;1974;48.670;8.994;2023-07-29T04:28:15;16.80;99.90
3919;DHT22;1974;48.670;8.994;2023-07-29T04:30:43;16.80;99.90
3919;DHT22;1974;48.670;8.994;2023-07-29T04:33:10;16.80;99.90
3919;DHT22;1974;48.670;8.994;2023-07-29T04:35:37;16.70;99.90
3919;DHT22;1974;48.670;8.994;2023-07-29T04:38:03;16.70;99.90
3919;DHT22;1974;48.670;8.994;2023-07-29T04:40:33;16.70;99.90
3919;DHT22;1974;48.670;8.994;2023-07-29T04:43:00;16.60;99.90
3919;DHT22;1974;48.670;8.994;2023-07-29T04:45:28;16.60;99.90
3919;DHT22;1974;48.670;8.994;2023-07-29T04:47:56;16.60;99.90
3919;DHT22;1974;48.670;8.994;2023-07-29T04:50:23;16.60;99.90
3919;DHT22;1974;48.670;8.994;2023-07-29T04:52:50;16.60;99.90
3919;DHT22;1974;48.670;8.994;2023-07-29T04:55:18;16.50;99.90
3919;DHT22;1974;48.670;8.994;2023-07-29T04:57:45;16.50;99.90
3919;DHT22;1974;48.670;8.994;2023-07-29T05:00:11;16.60;99.90
3919;DHT22;1974;48.670;8.994;2023-07-29T05:02:39;16.50;99.90
3919;DHT22;1974;48.670;8.994;2023-07-29T05:05:07;16.50;99.90
3919;DHT22;1974;48.670;8.994;2023-07-29T05:07:34;16.50;99.90
3919;DHT22;1974;48.670;8.994;2023-07-29T05:10:01;16.50;99.90
3919;DHT22;1974;48.670;8.994;2023-07-29T05:12:28;16.50;99.90
3919;DHT22;1974;48.670;8.994;2023-07-29T05:14:55;16.50;99.90
3919;DHT22;1974;48.670;8.994;2023-07-29T05:17:22;16.50;99.90
3919;DHT22;1974;48.670;8.994;2023-07-29T05:19:49;16.60;99.90
3919;DHT22;1974;48.670;8.994;2023-07-29T05:22:17;16.60;99.90
3919;DHT22;1974;48.670;8.994;2023-07-29T05:24:43;16.60;99.90
3919;DHT22;1974;48.670;8.994;2023-07-29T05:27:10;16.60;99.90
3919;DHT22;1974;48.670;8.994;2023-07-29T05:29:37;16.60;99.90
3919;DHT22;1974;48.670;8.994;2023-07-29T05:32:04;16.70;99.90
3919;DHT22;1974;48.670;8.994;2023-07-29T05:34:31;16.80;99.90
3919;DHT22;1974;48.670;8.994;2023-07-29T05:36:58;16.80;99.90
3919;DHT22;1974;48.670;8.994;2023-07-29T05:39:26;16.90;99.90
3919;DHT22;1974;48.670;8.994;2023-07-29T05:41:53;16.90;99.90
3919;DHT22;1974;48.670;8.994;2023-07-29T05:44:20;17.00;99.90
3919;DHT22;1974;48.670;8.994;2023-07-29T05:46:46;17.10;99.90
3919;DHT22;1974;48.670;8.994;2023-07-29T05:49:14;17.00;99.90
3919;DHT22;1974;48.670;8.994;2023-07-29T05:51:40;17.10;99.90
3919;DHT22;1974;48.670;8.994;2023-07-29T05:54:07;17.10;99.90
3919;DHT22;1974;48.670;8.994;2023-07-29T05:56:35;17.10;99.90
3919;DHT22;1974;48.670;8.994;2023-07-29T05:59:02;17.20;99.90
3919;DHT22;1974;48.670;8.994;2023-07-29T06:01:29;17.20;99.90
3919;DHT22;1974;48.670;8.994;2023-07-29T06:03:55;17.30;99.90
3919;DHT22;1974;48.670;8.994;2023-07-29T06:06:22;17.30;99.90
3919;DHT22;1974;48.670;8.994;2023-07-29T06:08:50;17.40;99.90
3919;DHT22;1974;48.670;8.994;2023-07-29T06:11:16;17.50;99.90
3919;DHT22;1974;48.670;8.994;2023-07-29T06:13:47;17.50;99.90
3919;DHT22;1974;48.670;8.994;2023-07-29T06:16:13;17.60;99.90
3919;DHT22;1974;48.670;8.994;2023-07-29T06:18:40;17.60;99.90
3919;DHT22;1974;48.670;8.994;2023-07-29T06:21:07;17.70;99.90
3919;DHT22;1974;48.670;8.994;2023-07-29T06:23:37;17.80;99.90
3919;DHT22;1974;48.670;8.994;2023-07-29T06:26:03;17.80;99.90
3919;DHT22;1974;48.670;8.994;2023-07-29T06:28:32;17.70;99.90
3919;DHT22;1974;48.670;8.994;2023-07-29T06:31:01;17.70;99.90
3919;DHT22;1974;48.670;8.994;2023-07-29T06:33:27;17.60;99.90
3919;DHT22;1974;48.670;8.994;2023-07-29T06:35:54;17.70;99.90
3919;DHT22;1974;48.670;8.994;2023-07-29T06:38:21;17.60;99.90
3919;DHT22;1974;48.670;8.994;2023-07-29T06:40:48;17.50;99.90
3919;DHT22;1974;48.670;8.994;2023-07-29T06:43:14;17.50;99.90
3919;DHT22;1974;48.670;8.994;2023-07-29T06:45:41;17.50;99.90
3919;DHT22;1974;48.670;8.994;2023-07-29T06:48:09;17.50;99.90
3919;DHT22;1974;48.670;8.994;2023-07-29T06:50:36;17.40;99.90
3919;DHT22;1974;48.670;8.994;2023-07-29T06:53:03;17.40;99.90
3919;DHT22;1974;48.670;8.994;2023-07-29T06:55:30;17.30;99.90
3919;DHT22;1974;48.670;8.994;2023-07-29T06:57:57;17.30;99.90
3919;DHT22;1974;48.670;8.994;2023-07-29T07:00:23;17.30;99.90
3919;DHT22;1974;48.670;8.994;2023-07-29T07:02:50;17.30;99.90
3919;DHT22;1974;48.670;8.994;2023-07-29T07:05:18;17.20;99.90
3919;DHT22;1974;48.670;8.994;2023-07-29T07:07:45;17.20;99.90
3919;DHT22;1974;48.670;8.994;2023-07-29T07:10:12;17.10;99.90
3919;DHT22;1974;48.670;8.994;2023-07-29T07:12:39;17.10;99.90
3919;DHT22;1974;48.670;8.994;2023-07-29T07:15:07;17.10;99.90
3919;DHT22;1974;48.670;8.994;2023-07-29T07:17:34;17.10;99.90
3919;DHT22;1974;48.670;8.994;2023-07-29T07:20:01;17.10;99.90
3919;DHT22;1974;48.670;8.994;2023-07-29T07:22:30;17.10;99.90
3919;DHT22;1974;48.670;8.994;2023-07-29T07:24:56;17.10;99.90
3919;DHT22;1974;48.670;8.994;2023-07-29T07:27:23;17.10;99.90
3919;DHT22;1974;48.670;8.994;2023-07-29T07:29:50;17.20;99.90
3919;DHT22;1974;48.670;8.994;2023-07-29T07:32:17;17.20;99.90
3919;DHT22;1974;48.670;8.994;2023-07-29T07:34:44;17.30;99.90
3919;DHT22;1974;48.670;8.994;2023-07-29T07:37:10;17.40;99.90
3919;DHT22;1974;48.670;8.994;2023-07-29T07:39:38;17.40;99.90
3919;DHT22;1974;48.670;8.994;2023-07-29T07:42:06;17.40;99.90
3919;DHT22;1974;48.670;8.994;2023-07-29T07:44:32;17.50;99.90
3919;DHT22;1974;48.670;8.994;2023-07-29T07:46:59;17.50;99.90
3919;DHT22;1974;48.670;8.994;2023-07-29T07:49:26;17.60;99.90
3919;DHT22;1974;48.670;8.994;2023-07-29T07:51:53;17.60;99.90
3919;DHT22;1974;48.670;8.994;2023-07-29T07:54:19;17.80;99.90
3919;DHT22;1974;48.670;8.994;2023-07-29T07:56:47;17.70;99.90
3919;DHT22;1974;48.670;8.994;2023-07-29T07:59:14;17.70;99.90
3919;DHT22;1974;48.670;8.994;2023-07-29T08:01:41;17.80;99.90
3919;DHT22;1974;48.670;8.994;2023-07-29T08:04:08;17.80;99.90
3919;DHT22;1974;48.670;8.994;2023-07-29T08:06:34;17.80;99.90
3919;DHT22;1974;48.670;8.994;2023-07-29T08:09:02;17.80;99.90
3919;DHT22;1974;48.670;8.994;2023-07-29T08:11:28;17.80;99.90
3919;DHT22;1974;48.670;8.994;2023-07-29T08:13:58;18.00;99.90
3919;DHT22;1974;48.670;8.994;2023-07-29T08:16:25;18.00;99.90
3919;DHT22;1974;48.670;8.994;2023-07-29T08:18:51;18.00;99.90
3919;DHT22;1974;48.670;8.994;2023-07-29T08:21:18;18.10;99.90
3919;DHT22;1974;48.670;8.994;2023-07-29T08:23:45;18.20;99.90
3919;DHT22;1974;48.670;8.994;2023-07-29T08:26:12;18.30;99.90
3919;DHT22;1974;48.670;8.994;2023-07-29T08:28:39;18.50;99.90
3919;DHT22;1974;48.670;8.994;2023-07-29T08:31:07;18.70;99.90
3919;DHT22;1974;48.670;8.994;2023-07-29T08:33:34;18.90;99.90
3919;DHT22;1974;48.670;8.994;2023-07-29T08:36:01;19.10;99.90
3919;DHT22;1974;48.670;8.994;2023-07-29T08:38:28;19.30;99.90
3919;DHT22;1974;48.670;8.994;2023-07-29T08:40:59;19.50;99.90
3919;DHT22;1974;48.670;8.994;2023-07-29T08:43:32;19.70;99.90
3919;DHT22;1974;48.670;8.994;2023-07-29T08:46:00;19.90;99.90
3919;DHT22;1974;48.670;8.994;2023-07-29T08:48:33;20.00;99.90
3919;DHT22;1974;48.670;8.994;2023-07-29T08:51:04;20.00;99.90
3919;DHT22;1974;48.670;8.994;2023-07-29T08:53:31;19.80;99.90
3919;DHT22;1974;48.670;8.994;2023-07-29T08:55:59;19.60;99.90
3919;DHT22;1974;48.670;8.994;2023-07-29T08:58:26;19.60;99.90
3919;DHT22;1974;48.670;8.994;2023-07-29T09:00:53;19.60;99.90
3919;DHT22;1974;48.670;8.994;2023-07-29T09:03:20;19.70;99.90
3919;DHT22;1974;48.670;8.994;2023-07-29T09:05:48;19.80;99.90
3919;DHT22;1974;48.670;8.994;2023-07-29T09:08:15;19.80;99.90
3919;DHT22;1974;48.670;8.994;2023-07-29T09:10:42;20.00;99.90
3919;DHT22;1974;48.670;8.994;2023-07-29T09:13:09;20.10;99.90
3919;DHT22;1974;48.670;8.994;2023-07-29T09:15:37;20.40;99.90
3919;DHT22;1974;48.670;8.994;2023-07-29T09:18:10;20.70;99.90
3919;DHT22;1974;48.670;8.994;2023-07-29T09:20:37;20.90;99.90
3919;DHT22;1974;48.670;8.994;2023-07-29T09:23:08;21.30;99.90
3919;DHT22;1974;48.670;8.994;2023-07-29T09:25:35;21.40;99.90
3919;DHT22;1974;48.670;8.994;2023-07-29T09:28:09;21.60;99.90
3919;DHT22;1974;48.670;8.994;2023-07-29T09:30:36;21.70;99.90
3919;DHT22;1974;48.670;8.994;2023-07-29T09:33:03;21.70;99.90
3919;DHT22;1974;48.670;8.994;2023-07-29T09:35:33;21.60;99.90
3919;DHT22;1974;48.670;8.994;2023-07-29T09:38:00;21.50;99.90
3919;DHT22;1974;48.670;8.994;2023-07-29T09:40:34;21.60;99.90
3919;DHT22;1974;48.670;8.994;2023-07-29T09:43:01;21.80;99.90
3919;DHT22;1974;48.670;8.994;2023-07-29T09:45:28;21.90;99.90
3919;DHT22;1974;48.670;8.994;2023-07-29T09:47:57;21.90;99.90
3919;DHT22;1974;48.670;8.994;2023-07-29T09:50:24;21.90;99.90
3919;DHT22;1974;48.670;8.994;2023-07-29T09:52:52;21.70;99.90
3919;DHT22;1974;48.670;8.994;2023-07-29T09:55:20;21.60;99.90
3919;DHT22;1974;48.670;8.994;2023-07-29T09:57:53;21.80;99.90
3919;DHT22;1974;48.670;8.994;2023-07-29T10:00:20;21.70;99.90
3919;DHT22;1974;48.670;8.994;2023-07-29T10:02:47;21.80;99.90
3919;DHT22;1974;48.670;8.994;2023-07-29T10:05:14;21.90;99.90
3919;DHT22;1974;48.670;8.994;2023-07-29T10:07:41;22.00;99.90
3919;DHT22;1974;48.670;8.994;2023-07-29T10:10:08;22.20;99.90
3919;DHT22;1974;48.670;8.994;2023-07-29T10:12:35;22.00;99.90
3919;DHT22;1974;48.670;8.994;2023-07-29T10:15:05;22.20;99.90
3919;DHT22;1974;48.670;8.994;2023-07-29T10:17:35;22.20;99.90
3919;DHT22;1974;48.670;8.994;2023-07-29T10:20:03;22.20;99.90
3919;DHT22;1974;48.670;8.994;2023-07-29T10:22:33;22.30;99.90
3919;DHT22;1974;48.670;8.994;2023-07-29T10:25:03;22.50;99.90
3919;DHT22;1974;48.670;8.994;2023-07-29T10:27:36;22.90;99.90
3919;DHT22;1974;48.670;8.994;2023-07-29T10:30:07;23.00;99.90
3919;DHT22;1974;48.670;8.994;2023-07-29T10:32:35;23.20;99.90
3919;DHT22;1974;48.670;8.994;2023-07-29T10:35:02;23.40;99.90
3919;DHT22;1974;48.670;8.994;2023-07-29T10:37:29;23.60;99.90
3919;DHT22;1974;48.670;8.994;2023-07-29T10:39:56;23.90;99.90
3919;DHT22;1974;48.670;8.994;2023-07-29T10:42:23;23.90;99.90
3919;DHT22;1974;48.670;8.994;2023-07-29T10:44:51;23.80;99.90
3919;DHT22;1974;48.670;8.994;2023-07-29T10:47:21;23.60;99.90
3919;DHT22;1974;48.670;8.994;2023-07-29T10:49:51;23.50;99.90
3919;DHT22;1974;48.670;8.994;2023-07-29T10:52:32;23.50;99.90
3919;DHT22;1974;48.670;8.994;2023-07-29T10:55:04;23.60;99.90
3919;DHT22;1974;48.670;8.994;2023-07-29T10:57:48;23.60;99.90
3919;DHT22;1974;48.670;8.994;2023-07-29T11:00:16;23.80;99.90
3919;DHT22;1974;48.670;8.994;2023-07-29T11:02:56;24.00;99.90
3919;DHT22;1974;48.670;8.994;2023-07-29T11:05:23;24.10;99.90
3919;DHT22;1974;48.670;8.994;2023-07-29T11:07:50;24.20;99.90
3919;DHT22;1974;48.670;8.994;2023-07-29T11:10:17;24.10;99.90
3919;DHT22;1974;48.670;8.994;2023-07-29T11:12:45;24.00;99.90
3919;DHT22;1974;48.670;8.994;2023-07-29T11:15:21;23.90;99.90
3919;DHT22;1974;48.670;8.994;2023-07-29T11:17:51;23.90;99.90
3919;DHT22;1974;48.670;8.994;2023-07-29T11:20:19;23.80;99.90
3919;DHT22;1974;48.670;8.994;2023-07-29T11:22:46;23.70;99.90
3919;DHT22;1974;48.670;8.994;2023-07-29T11:25:14;23.70;99.90
3919;DHT22;1974;48.670;8.994;2023-07-29T11:27:42;23.80;99.90
3919;DHT22;1974;48.670;8.994;2023-07-29T11:30:10;23.70;99.90
3919;DHT22;1974;48.670;8.994;2023-07-29T11:32:38;23.70;99.90
3919;DHT22;1974;48.670;8.994;2023-07-29T11:35:08;23.70;99.90
3919;DHT22;1974;48.670;8.994;2023-07-29T11:37:35;23.80;99.90
3919;DHT22;1974;48.670;8.994;2023-07-29T11:40:03;23.80;99.90
3919;DHT22;1974;48.670;8.994;2023-07-29T11:42:32;23.70;99.90
3919;DHT22;1974;48.670;8.994;2023-07-29T11:44:59;23.80;99.90
3919;DHT22;1974;48.670;8.994;2023-07-29T11:47:26;23.80;99.90
3919;DHT22;1974;48.670;8.994;2023-07-29T11:49:52;23.90;99.90
3919;DHT22;1974;48.670;8.994;2023-07-29T11:52:21;23.90;99.90
3919;DHT22;1974;48.670;8.994;2023-07-29T11:54:48;23.90;99.90
3919;DHT22;1974;48.670;8.994;2023-07-29T11:57:16;23.90;99.90
3919;DHT22;1974;48.670;8.994;2023-07-29T11:59:45;24.00;99.90
3919;DHT22;1974;48.670;8.994;2023-07-29T12:02:14;24.00;99.90
3919;DHT22;1974;48.670;8.994;2023-07-29T12:04:43;23.90;99.90
3919;DHT22;1974;48.670;8.994;2023-07-29T12:07:10;23.80;99.90
3919;DHT22;1974;48.670;8.994;2023-07-29T12:09:40;23.90;99.90
3919;DHT22;1974;48.670;8.994;2023-07-29T12:12:08;23.80;99.90
3919;DHT22;1974;48.670;8.994;2023-07-29T12:14:35;23.80;99.90
3919;DHT22;1974;48.670;8.994;2023-07-29T12:17:03;23.80;99.90
3919;DHT22;1974;48.670;8.994;2023-07-29T12:19:34;23.90;99.90
3919;DHT22;1974;48.670;8.994;2023-07-29T12:22:02;24.00;99.90
3919;DHT22;1974;48.670;8.994;2023-07-29T12:24:30;24.00;99.90
3919;DHT22;1974;48.670;8.994;2023-07-29T12:26:58;24.10;99.90
3919;DHT22;1974;48.670;8.994;2023-07-29T12:29:26;24.00;99.90
3919;DHT22;1974;48.670;8.994;2023-07-29T12:31:58;24.10;99.90
3919;DHT22;1974;48.670;8.994;2023-07-29T12:34:26;24.10;99.90
3919;DHT22;1974;48.670;8.994;2023-07-29T12:36:54;24.10;99.90
3919;DHT22;1974;48.670;8.994;2023-07-29T12:39:23;24.10;99.90
3919;DHT22;1974;48.670;8.994;2023-07-29T12:41:52;24.10;99.90
3919;DHT22;1974;48.670;8.994;2023-07-29T12:44:21;24.10;99.90
3919;DHT22;1974;48.670;8.994;2023-07-29T12:46:49;24.10;99.90
3919;DHT22;1974;48.670;8.994;2023-07-29T12:49:16;24.10;99.90
3919;DHT22;1974;48.670;8.994;2023-07-29T12:51:42;24.10;99.90
3919;DHT22;1974;48.670;8.994;2023-07-29T12:54:09;24.10;99.90
3919;DHT22;1974;48.670;8.994;2023-07-29T12:56:36;24.10;99.90
3919;DHT22;1974;48.670;8.994;2023-07-29T12:59:05;24.20;99.90
3919;DHT22;1974;48.670;8.994;2023-07-29T13:01:33;24.20;99.90
3919;DHT22;1974;48.670;8.994;2023-07-29T13:04:00;24.00;99.90
3919;DHT22;1974;48.670;8.994;2023-07-29T13:06:26;24.10;99.90
3919;DHT22;1974;48.670;8.994;2023-07-29T13:08:53;24.00;99.90
3919;DHT22;1974;48.670;8.994;2023-07-29T13:11:20;23.90;99.90
3919;DHT22;1974;48.670;8.994;2023-07-29T13:13:46;23.90;99.90
3919;DHT22;1974;48.670;8.994;2023-07-29T13:16:13;23.90;99.90
3919;DHT22;1974;48.670;8.994;2023-07-29T13:18:43;23.90;99.90
3919;DHT22;1974;48.670;8.994;2023-07-29T13:21:10;23.90;99.90
3919;DHT22;1974;48.670;8.994;2023-07-29T13:23:37;23.90;99.90
3919;DHT22;1974;48.670;8.994;2023-07-29T13:26:04;23.70;99.90
3919;DHT22;1974;48.670;8.994;2023-07-29T13:28:30;23.70;99.90
3919;DHT22;1974;48.670;8.994;2023-07-29T13:30:57;23.80;99.90
3919;DHT22;1974;48.670;8.994;2023-07-29T13:33:24;23.90;99.90
3919;DHT22;1974;48.670;8.994;2023-07-29T13:35:52;23.90;99.90
3919;DHT22;1974;48.670;8.994;2023-07-29T13:38:19;23.90;99.90
3919;DHT22;1974;48.670;8.994;2023-07-29T13:40:46;24.00;99.90
3919;DHT22;1974;48.670;8.994;2023-07-29T13:43:16;24.10;99.90
3919;DHT22;1974;48.670;8.994;2023-07-29T13:45:43;24.10;99.90
3919;DHT22;1974;48.670;8.994;2023-07-29T13:48:09;24.10;99.90
3919;DHT22;1974;48.670;8.994;2023-07-29T13:50:36;24.20;99.90
3919;DHT22;1974;48.670;8.994;2023-07-29T13:53:04;24.20;99.90
3919;DHT22;1974;48.670;8.994;2023-07-29T13:55:31;24.20;99.90
3919;DHT22;1974;48.670;8.994;2023-07-29T13:57:58;24.10;99.90
3919;DHT22;1974;48.670;8.994;2023-07-29T14:00:25;24.20;99.90
3919;DHT22;1974;48.670;8.994;2023-07-29T14:02:52;24.20;99.90
3919;DHT22;1974;48.670;8.994;2023-07-29T14:05:18;24.30;99.90
3919;DHT22;1974;48.670;8.994;2023-07-29T14:07:45;24.20;99.90
3919;DHT22;1974;48.670;8.994;2023-07-29T14:10:13;24.10;99.90
3919;DHT22;1974;48.670;8.994;2023-07-29T14:12:40;24.00;99.90
3919;DHT22;1974;48.670;8.994;2023-07-29T14:15:08;23.90;99.90
3919;DHT22;1974;48.670;8.994;2023-07-29T14:17:34;23.90;99.90
3919;DHT22;1974;48.670;8.994;2023-07-29T14:20:01;23.90;99.90
3919;DHT22;1974;48.670;8.994;2023-07-29T14:22:28;23.90;99.90
3919;DHT22;1974;48.670;8.994;2023-07-29T14:24:55;23.90;99.90
3919;DHT22;1974;48.670;8.994;2023-07-29T14:27:23;24.00;99.90
3919;DHT22;1974;48.670;8.994;2023-07-29T14:29:50;24.00;99.90
3919;DHT22;1974;48.670;8.994;2023-07-29T14:32:16;24.10;99.90
3919;DHT22;1974;48.670;8.994;2023-07-29T14:34:43;24.10;99.90
3919;DHT22;1974;48.670;8.994;2023-07-29T14:37:10;24.10;99.90
3919;DHT22;1974;48.670;8.994;2023-07-29T14:39:37;24.10;99.90
3919;DHT22;1974;48.670;8.994;2023-07-29T14:42:04;24.00;99.90
3919;DHT22;1974;48.670;8.994;2023-07-29T14:44:33;24.00;99.90
3919;DHT22;1974;48.670;8.994;2023-07-29T14:47:00;24.00;99.90
3919;DHT22;1974;48.670;8.994;2023-07-29T14:49:26;24.00;99.90
3919;DHT22;1974;48.670;8.994;2023-07-29T14:51:53;24.00;99.90
3919;DHT22;1974;48.670;8.994;2023-07-29T14:54:20;24.00;99.90
3919;DHT22;1974;48.670;8.994;2023-07-29T14:56:47;24.10;99.90
3919;DHT22;1974;48.670;8.994;2023-07-29T14:59:14;24.00;99.90
3919;DHT22;1974;48.670;8.994;2023-07-29T15:01:42;24.00;99.90
3919;DHT22;1974;48.670;8.994;2023-07-29T15:04:09;23.90;99.90
3919;DHT22;1974;48.670;8.994;2023-07-29T15:06:35;24.00;99.90
3919;DHT22;1974;48.670;8.994;2023-07-29T15:09:02;23.90;99.90
3919;DHT22;1974;48.670;8.994;2023-07-29T15:11:29;23.90;99.90
3919;DHT22;1974;48.670;8.994;2023-07-29T15:13:56;23.90;99.90
3919;DHT22;1974;48.670;8.994;2023-07-29T15:16:23;23.80;99.90
3919;DHT22;1974;48.670;8.994;2023-07-29T15:18:52;23.80;99.90
3919;DHT22;1974;48.670;8.994;2023-07-29T15:21:18;23.90;99.90
3919;DHT22;1974;48.670;8.994;2023-07-29T15:23:45;23.80;99.90
3919;DHT22;1974;48.670;8.994;2023-07-29T15:26:12;23.80;99.90
3919;DHT22;1974;48.670;8.994;2023-07-29T15:28:39;23.70;99.90
3919;DHT22;1974;48.670;8.994;2023-07-29T15:31:06;23.70;99.90
3919;DHT22;1974;48.670;8.994;2023-07-29T15:33:33;23.70;99.90
3919;DHT22;1974;48.670;8.994;2023-07-29T15:36:02;23.70;99.90
3919;DHT22;1974;48.670;8.994;2023-07-29T15:38:29;23.70;99.90
3919;DHT22;1974;48.670;8.994;2023-07-29T15:40:55;23.80;99.90
3919;DHT22;1974;48.670;8.994;2023-07-29T15:43:22;23.90;99.90
3919;DHT22;1974;48.670;8.994;2023-07-29T15:45:49;23.80;99.90
3919;DHT22;1974;48.670;8.994;2023-07-29T15:48:16;23.80;99.90
3919;DHT22;1974;48.670;8.994;2023-07-29T15:50:43;23.80;99.90
3919;DHT22;1974;48.670;8.994;2023-07-29T15:53:11;23.70;99.90
3919;DHT22;1974;48.670;8.994;2023-07-29T15:55:38;23.60;99.90
3919;DHT22;1974;48.670;8.994;2023-07-29T15:58:04;23.60;99.90
3919;DHT22;1974;48.670;8.994;2023-07-29T16:00:31;23.50;99.90
3919;DHT22;1974;48.670;8.994;2023-07-29T16:02:58;23.60;99.90
3919;DHT22;1974;48.670;8.994;2023-07-29T16:05:25;23.60;99.90